sensor_id;sensor_type;location;lat;lon;timestamp;P1;durP1;ratioP1;P2;durP2;ratioP2
1360;SDS011;674;45.552;-122.600;2023-04-21T00:02:03;5.70;;;4.27;;
1360;SDS011;674;45.552;-122.600;2023-04-21T00:04:32;6.57;;;4.43;;
1360;SDS011;674;45.552;-122.600;2023-04-21T00:07:02;7.60;;;5.87;;
1360;SDS011;674;45.552;-122.600;2023-04-21T00:09:30;10.10;;;5.80;;
1360;SDS011;674;45.552;-122.600;2023-04-21T00:11:59;6.63;;;4.60;;
1360;SDS011;674;45.552;-122.600;2023-04-21T00:14:27;7.38;;;5.18;;
1360;SDS011;674;45.552;-122.600;2023-04-21T00:16:56;8.23;;;5.03;;
1360;SDS011;674;45.552;-122.600;2023-04-21T00:19:26;5.93;;;4.10;;
1360;SDS011;674;45.552;-122.600;2023-04-21T00:21:56;7.30;;;5.60;;
1360;SDS011;674;45.552;-122.600;2023-04-21T00:24:27;10.43;;;5.87;;
1360;SDS011;674;45.552;-122.600;2023-04-21T00:26:56;7.00;;;5.10;;
1360;SDS011;674;45.552;-122.600;2023-04-21T00:29:24;6.83;;;5.73;;
1360;SDS011;674;45.552;-122.600;2023-04-21T00:31:53;7.57;;;5.77;;
1360;SDS011;674;45.552;-122.600;2023-04-21T00:34:21;10.30;;;6.17;;
1360;SDS011;674;45.552;-122.600;2023-04-21T00:36:50;11.73;;;7.50;;
1360;SDS011;674;45.552;-122.600;2023-04-21T00:39:18;9.87;;;6.90;;
1360;SDS011;674;45.552;-122.600;2023-04-21T00:41:47;9.20;;;6.63;;
1360;SDS011;674;45.552;-122.600;2023-04-21T00:44:15;8.83;;;6.10;;
1360;SDS011;674;45.552;-122.600;2023-04-21T00:46:44;6.80;;;5.47;;
1360;SDS011;674;45.552;-122.600;2023-04-21T00:49:16;7.07;;;4.83;;
1360;SDS011;674;45.552;-122.600;2023-04-21T00:51:45;7.63;;;5.80;;
1360;SDS011;674;45.552;-122.600;2023-04-21T00:54:13;9.60;;;7.20;;
1360;SDS011;674;45.552;-122.600;2023-04-21T00:56:42;10.17;;;7.10;;
1360;SDS011;674;45.552;-122.600;2023-04-21T00:59:11;10.03;;;6.80;;
1360;SDS011;674;45.552;-122.600;2023-04-21T01:01:39;9.80;;;7.20;;
1360;SDS011;674;45.552;-122.600;2023-04-21T01:04:08;11.37;;;9.60;;
1360;SDS011;674;45.552;-122.600;2023-04-21T01:06:36;8.10;;;7.20;;
1360;SDS011;674;45.552;-122.600;2023-04-21T01:09:05;11.63;;;7.87;;
1360;SDS011;674;45.552;-122.600;2023-04-21T01:11:33;8.10;;;7.20;;
1360;SDS011;674;45.552;-122.600;2023-04-21T01:14:02;12.47;;;8.87;;
1360;SDS011;674;45.552;-122.600;2023-04-21T01:16:31;11.00;;;8.43;;
1360;SDS011;674;45.552;-122.600;2023-04-21T01:19:00;19.97;;;9.70;;
1360;SDS011;674;45.552;-122.600;2023-04-21T01:21:37;12.10;;;7.73;;
1360;SDS011;674;45.552;-122.600;2023-04-21T01:24:09;8.40;;;6.83;;
1360;SDS011;674;45.552;-122.600;2023-04-21T01:26:38;11.10;;;8.50;;
1360;SDS011;674;45.552;-122.600;2023-04-21T01:29:06;8.57;;;6.50;;
1360;SDS011;674;45.552;-122.600;2023-04-21T01:31:35;9.50;;;7.40;;
1360;SDS011;674;45.552;-122.600;2023-04-21T01:34:03;8.03;;;6.80;;
1360;SDS011;674;45.552;-122.600;2023-04-21T01:36:32;10.07;;;7.57;;
1360;SDS011;674;45.552;-122.600;2023-04-21T01:39:02;10.20;;;7.07;;
1360;SDS011;674;45.552;-122.600;2023-04-21T01:41:31;8.80;;;7.20;;
1360;SDS011;674;45.552;-122.600;2023-04-21T01:43:59;8.90;;;6.87;;
1360;SDS011;674;45.552;-122.600;2023-04-21T01:46:28;8.70;;;7.33;;
1360;SDS011;674;45.552;-122.600;2023-04-21T01:48:57;8.10;;;6.90;;
1360;SDS011;674;45.552;-122.600;2023-04-21T01:51:25;10.70;;;8.50;;
1360;SDS011;674;45.552;-122.600;2023-04-21T01:53:53;9.10;;;7.17;;
1360;SDS011;674;45.552;-122.600;2023-04-21T01:56:22;14.40;;;9.63;;
1360;SDS011;674;45.552;-122.600;2023-04-21T01:58:50;13.30;;;8.10;;
1360;SDS011;674;45.552;-122.600;2023-04-21T02:01:19;10.30;;;6.87;;
1360;SDS011;674;45.552;-122.600;2023-04-21T02:03:48;7.43;;;6.10;;
1360;SDS011;674;45.552;-122.600;2023-04-21T02:06:16;10.40;;;8.27;;
1360;SDS011;674;45.552;-122.600;2023-04-21T02:08:45;9.40;;;8.40;;
1360;SDS011;674;45.552;-122.600;2023-04-21T02:11:13;11.17;;;6.80;;
1360;SDS011;674;45.552;-122.600;2023-04-21T02:13:42;11.73;;;8.77;;
1360;SDS011;674;45.552;-122.600;2023-04-21T02:16:10;12.90;;;9.00;;
1360;SDS011;674;45.552;-122.600;2023-04-21T02:18:39;12.00;;;9.00;;
1360;SDS011;674;45.552;-122.600;2023-04-21T02:21:08;12.00;;;9.60;;
1360;SDS011;674;45.552;-122.600;2023-04-21T02:23:37;12.23;;;9.50;;
1360;SDS011;674;45.552;-122.600;2023-04-21T02:26:05;12.50;;;10.60;;
1360;SDS011;674;45.552;-122.600;2023-04-21T02:28:34;18.40;;;12.80;;
1360;SDS011;674;45.552;-122.600;2023-04-21T02:31:02;13.63;;;10.10;;
1360;SDS011;674;45.552;-122.600;2023-04-21T02:33:31;14.20;;;11.67;;
1360;SDS011;674;45.552;-122.600;2023-04-21T02:35:59;15.47;;;11.70;;
1360;SDS011;674;45.552;-122.600;2023-04-21T02:38:27;16.40;;;11.83;;
1360;SDS011;674;45.552;-122.600;2023-04-21T02:40:56;19.07;;;13.77;;
1360;SDS011;674;45.552;-122.600;2023-04-21T02:43:25;18.60;;;15.67;;
1360;SDS011;674;45.552;-122.600;2023-04-21T02:45:53;17.23;;;13.53;;
1360;SDS011;674;45.552;-122.600;2023-04-21T02:48:22;19.73;;;14.30;;
1360;SDS011;674;45.552;-122.600;2023-04-21T02:50:51;19.10;;;14.90;;
1360;SDS011;674;45.552;-122.600;2023-04-21T02:53:19;15.23;;;12.40;;
1360;SDS011;674;45.552;-122.600;2023-04-21T02:55:48;14.83;;;13.20;;
1360;SDS011;674;45.552;-122.600;2023-04-21T02:58:16;20.70;;;12.60;;
1360;SDS011;674;45.552;-122.600;2023-04-21T03:00:45;17.70;;;12.80;;
1360;SDS011;674;45.552;-122.600;2023-04-21T03:03:16;18.73;;;14.17;;
1360;SDS011;674;45.552;-122.600;2023-04-21T03:05:45;18.70;;;15.50;;
1360;SDS011;674;45.552;-122.600;2023-04-21T03:08:13;14.10;;;12.27;;
1360;SDS011;674;45.552;-122.600;2023-04-21T03:10:42;16.40;;;13.90;;
1360;SDS011;674;45.552;-122.600;2023-04-21T03:13:10;20.13;;;15.67;;
1360;SDS011;674;45.552;-122.600;2023-04-21T03:15:39;20.93;;;13.80;;
1360;SDS011;674;45.552;-122.600;2023-04-21T03:18:07;13.63;;;10.70;;
1360;SDS011;674;45.552;-122.600;2023-04-21T03:20:36;12.03;;;8.83;;
1360;SDS011;674;45.552;-122.600;2023-04-21T03:23:04;10.43;;;7.70;;
1360;SDS011;674;45.552;-122.600;2023-04-21T03:25:32;9.03;;;7.97;;
1360;SDS011;674;45.552;-122.600;2023-04-21T03:28:01;10.63;;;8.60;;
1360;SDS011;674;45.552;-122.600;2023-04-21T03:30:29;11.40;;;9.17;;
1360;SDS011;674;45.552;-122.600;2023-04-21T03:32:58;11.00;;;8.70;;
1360;SDS011;674;45.552;-122.600;2023-04-21T03:35:27;12.73;;;8.90;;
1360;SDS011;674;45.552;-122.600;2023-04-21T03:37:56;8.03;;;6.80;;
1360;SDS011;674;45.552;-122.600;2023-04-21T03:40:28;10.40;;;7.30;;
1360;SDS011;674;45.552;-122.600;2023-04-21T03:42:57;7.00;;;5.77;;
1360;SDS011;674;45.552;-122.600;2023-04-21T03:45:25;11.00;;;9.47;;
1360;SDS011;674;45.552;-122.600;2023-04-21T03:47:54;8.40;;;6.57;;
1360;SDS011;674;45.552;-122.600;2023-04-21T03:50:23;8.30;;;6.47;;
1360;SDS011;674;45.552;-122.600;2023-04-21T03:52:51;5.43;;;4.53;;
1360;SDS011;674;45.552;-122.600;2023-04-21T03:55:20;6.73;;;5.00;;
1360;SDS011;674;45.552;-122.600;2023-04-21T03:57:48;6.67;;;4.60;;
1360;SDS011;674;45.552;-122.600;2023-04-21T04:00:16;4.83;;;3.57;;
1360;SDS011;674;45.552;-122.600;2023-04-21T04:02:45;6.83;;;4.30;;
1360;SDS011;674;45.552;-122.600;2023-04-21T04:05:14;4.83;;;3.10;;
1360;SDS011;674;45.552;-122.600;2023-04-21T04:07:42;5.03;;;3.80;;
1360;SDS011;674;45.552;-122.600;2023-04-21T04:10:12;5.37;;;3.30;;
1360;SDS011;674;45.552;-122.600;2023-04-21T04:12:40;6.30;;;3.40;;
1360;SDS011;674;45.552;-122.600;2023-04-21T04:15:09;5.70;;;3.97;;
1360;SDS011;674;45.552;-122.600;2023-04-21T04:17:37;5.67;;;4.17;;
1360;SDS011;674;45.552;-122.600;2023-04-21T04:20:06;5.47;;;3.30;;
1360;SDS011;674;45.552;-122.600;2023-04-21T04:22:35;6.30;;;4.03;;
1360;SDS011;674;45.552;-122.600;2023-04-21T04:25:03;4.25;;;2.45;;
1360;SDS011;674;45.552;-122.600;2023-04-21T04:27:32;4.00;;;2.73;;
1360;SDS011;674;45.552;-122.600;2023-04-21T04:30:00;5.73;;;3.33;;
1360;SDS011;674;45.552;-122.600;2023-04-21T04:32:29;5.63;;;3.10;;
1360;SDS011;674;45.552;-122.600;2023-04-21T04:34:59;4.00;;;2.90;;
1360;SDS011;674;45.552;-122.600;2023-04-21T04:37:28;4.03;;;3.03;;
1360;SDS011;674;45.552;-122.600;2023-04-21T04:39:58;5.03;;;2.90;;
1360;SDS011;674;45.552;-122.600;2023-04-21T04:42:26;5.47;;;3.50;;
1360;SDS011;674;45.552;-122.600;2023-04-21T04:44:55;5.30;;;2.83;;
1360;SDS011;674;45.552;-122.600;2023-04-21T04:47:23;5.30;;;2.83;;
1360;SDS011;674;45.552;-122.600;2023-04-21T04:49:52;4.67;;;2.70;;
1360;SDS011;674;45.552;-122.600;2023-04-21T04:52:21;4.97;;;3.00;;
1360;SDS011;674;45.552;-122.600;2023-04-21T04:54:49;4.87;;;3.13;;
1360;SDS011;674;45.552;-122.600;2023-04-21T04:57:17;3.80;;;2.50;;
1360;SDS011;674;45.552;-122.600;2023-04-21T04:59:46;3.87;;;2.70;;
1360;SDS011;674;45.552;-122.600;2023-04-21T05:02:14;3.37;;;1.97;;
1360;SDS011;674;45.552;-122.600;2023-04-21T05:04:43;3.90;;;2.50;;
1360;SDS011;674;45.552;-122.600;2023-04-21T05:07:12;4.27;;;2.60;;
1360;SDS011;674;45.552;-122.600;2023-04-21T05:09:40;5.07;;;3.30;;
1360;SDS011;674;45.552;-122.600;2023-04-21T05:12:08;4.00;;;2.97;;
1360;SDS011;674;45.552;-122.600;2023-04-21T05:14:37;9.57;;;4.93;;
1360;SDS011;674;45.552;-122.600;2023-04-21T05:17:05;6.20;;;4.30;;
1360;SDS011;674;45.552;-122.600;2023-04-21T05:19:34;4.47;;;2.70;;
1360;SDS011;674;45.552;-122.600;2023-04-21T05:22:06;4.23;;;2.90;;
1360;SDS011;674;45.552;-122.600;2023-04-21T05:24:35;4.83;;;2.90;;
1360;SDS011;674;45.552;-122.600;2023-04-21T05:27:04;5.13;;;3.50;;
1360;SDS011;674;45.552;-122.600;2023-04-21T05:29:32;4.33;;;2.20;;
1360;SDS011;674;45.552;-122.600;2023-04-21T05:32:01;3.50;;;2.20;;
1360;SDS011;674;45.552;-122.600;2023-04-21T05:34:29;7.93;;;4.27;;
1360;SDS011;674;45.552;-122.600;2023-04-21T05:36:58;6.57;;;3.43;;
1360;SDS011;674;45.552;-122.600;2023-04-21T05:39:26;6.00;;;3.80;;
1360;SDS011;674;45.552;-122.600;2023-04-21T05:41:55;5.37;;;3.50;;
1360;SDS011;674;45.552;-122.600;2023-04-21T05:44:24;6.27;;;2.90;;
1360;SDS011;674;45.552;-122.600;2023-04-21T05:46:53;5.47;;;3.37;;
1360;SDS011;674;45.552;-122.600;2023-04-21T05:49:21;6.77;;;3.93;;
1360;SDS011;674;45.552;-122.600;2023-04-21T05:51:50;6.43;;;3.37;;
1360;SDS011;674;45.552;-122.600;2023-04-21T05:54:19;6.10;;;4.43;;
1360;SDS011;674;45.552;-122.600;2023-04-21T05:56:48;7.30;;;4.57;;
1360;SDS011;674;45.552;-122.600;2023-04-21T05:59:16;7.30;;;4.57;;
1360;SDS011;674;45.552;-122.600;2023-04-21T06:01:45;6.70;;;4.67;;
1360;SDS011;674;45.552;-122.600;2023-04-21T06:04:13;6.20;;;4.43;;
1360;SDS011;674;45.552;-122.600;2023-04-21T06:06:42;7.67;;;4.50;;
1360;SDS011;674;45.552;-122.600;2023-04-21T06:09:10;6.00;;;4.37;;
1360;SDS011;674;45.552;-122.600;2023-04-21T06:11:41;5.67;;;4.00;;
1360;SDS011;674;45.552;-122.600;2023-04-21T06:14:10;5.50;;;3.47;;
1360;SDS011;674;45.552;-122.600;2023-04-21T06:16:38;6.50;;;3.57;;
1360;SDS011;674;45.552;-122.600;2023-04-21T06:19:07;4.60;;;3.60;;
1360;SDS011;674;45.552;-122.600;2023-04-21T06:21:35;4.90;;;3.93;;
1360;SDS011;674;45.552;-122.600;2023-04-21T06:24:04;5.90;;;4.10;;
1360;SDS011;674;45.552;-122.600;2023-04-21T06:26:32;5.97;;;4.00;;
1360;SDS011;674;45.552;-122.600;2023-04-21T06:29:01;5.13;;;3.87;;
1360;SDS011;674;45.552;-122.600;2023-04-21T06:31:29;6.40;;;3.67;;
1360;SDS011;674;45.552;-122.600;2023-04-21T06:33:58;3.93;;;2.60;;
1360;SDS011;674;45.552;-122.600;2023-04-21T06:36:27;4.57;;;3.37;;
1360;SDS011;674;45.552;-122.600;2023-04-21T06:38:55;4.90;;;3.63;;
1360;SDS011;674;45.552;-122.600;2023-04-21T06:41:23;6.30;;;4.53;;
1360;SDS011;674;45.552;-122.600;2023-04-21T06:43:52;10.00;;;7.73;;
1360;SDS011;674;45.552;-122.600;2023-04-21T06:46:20;8.60;;;7.00;;
1360;SDS011;674;45.552;-122.600;2023-04-21T06:48:49;5.30;;;4.17;;
1360;SDS011;674;45.552;-122.600;2023-04-21T06:51:18;4.40;;;3.20;;
1360;SDS011;674;45.552;-122.600;2023-04-21T06:53:46;3.80;;;2.80;;
1360;SDS011;674;45.552;-122.600;2023-04-21T06:56:14;5.10;;;3.80;;
1360;SDS011;674;45.552;-122.600;2023-04-21T06:58:43;4.60;;;3.63;;
1360;SDS011;674;45.552;-122.600;2023-04-21T07:01:13;4.47;;;3.20;;
1360;SDS011;674;45.552;-122.600;2023-04-21T07:03:41;4.27;;;2.63;;
1360;SDS011;674;45.552;-122.600;2023-04-21T07:06:10;4.00;;;2.70;;
1360;SDS011;674;45.552;-122.600;2023-04-21T07:08:39;4.43;;;3.47;;
1360;SDS011;674;45.552;-122.600;2023-04-21T07:11:07;4.00;;;2.70;;
1360;SDS011;674;45.552;-122.600;2023-04-21T07:13:36;5.73;;;3.23;;
1360;SDS011;674;45.552;-122.600;2023-04-21T07:16:04;4.00;;;2.97;;
1360;SDS011;674;45.552;-122.600;2023-04-21T07:18:33;5.10;;;3.87;;
1360;SDS011;674;45.552;-122.600;2023-04-21T07:21:01;6.37;;;3.47;;
1360;SDS011;674;45.552;-122.600;2023-04-21T07:23:30;4.80;;;3.20;;
1360;SDS011;674;45.552;-122.600;2023-04-21T07:25:58;4.53;;;2.63;;
1360;SDS011;674;45.552;-122.600;2023-04-21T07:28:27;4.20;;;3.20;;
1360;SDS011;674;45.552;-122.600;2023-04-21T07:30:55;4.77;;;2.80;;
1360;SDS011;674;45.552;-122.600;2023-04-21T07:33:26;4.80;;;3.03;;
1360;SDS011;674;45.552;-122.600;2023-04-21T07:35:54;5.50;;;3.50;;
1360;SDS011;674;45.552;-122.600;2023-04-21T07:38:23;3.80;;;2.80;;
1360;SDS011;674;45.552;-122.600;2023-04-21T07:40:51;9.77;;;2.93;;
1360;SDS011;674;45.552;-122.600;2023-04-21T07:43:20;4.10;;;2.20;;
1360;SDS011;674;45.552;-122.600;2023-04-21T07:45:48;4.70;;;3.10;;
1360;SDS011;674;45.552;-122.600;2023-04-21T07:48:18;6.20;;;3.00;;
1360;SDS011;674;45.552;-122.600;2023-04-21T07:50:47;3.80;;;2.60;;
1360;SDS011;674;45.552;-122.600;2023-04-21T07:53:16;5.80;;;3.23;;
1360;SDS011;674;45.552;-122.600;2023-04-21T07:55:45;4.13;;;2.93;;
1360;SDS011;674;45.552;-122.600;2023-04-21T07:58:13;4.70;;;2.97;;
1360;SDS011;674;45.552;-122.600;2023-04-21T08:00:42;4.33;;;2.83;;
1360;SDS011;674;45.552;-122.600;2023-04-21T08:03:11;4.47;;;3.60;;
1360;SDS011;674;45.552;-122.600;2023-04-21T08:05:40;5.00;;;3.47;;
1360;SDS011;674;45.552;-122.600;2023-04-21T08:08:09;3.70;;;2.63;;
1360;SDS011;674;45.552;-122.600;2023-04-21T08:10:37;4.07;;;3.23;;
1360;SDS011;674;45.552;-122.600;2023-04-21T08:13:06;4.33;;;2.90;;
1360;SDS011;674;45.552;-122.600;2023-04-21T08:15:35;6.33;;;3.30;;
1360;SDS011;674;45.552;-122.600;2023-04-21T08:18:03;5.57;;;3.10;;
1360;SDS011;674;45.552;-122.600;2023-04-21T08:20:32;3.87;;;3.00;;
1360;SDS011;674;45.552;-122.600;2023-04-21T08:23:00;4.97;;;3.20;;
1360;SDS011;674;45.552;-122.600;2023-04-21T08:25:29;5.10;;;3.13;;
1360;SDS011;674;45.552;-122.600;2023-04-21T08:27:57;5.20;;;3.53;;
1360;SDS011;674;45.552;-122.600;2023-04-21T08:30:26;5.60;;;3.07;;
1360;SDS011;674;45.552;-122.600;2023-04-21T08:32:55;4.60;;;3.37;;
1360;SDS011;674;45.552;-122.600;2023-04-21T08:35:24;4.57;;;2.90;;
1360;SDS011;674;45.552;-122.600;2023-04-21T08:37:52;4.20;;;3.30;;
1360;SDS011;674;45.552;-122.600;2023-04-21T08:40:21;4.73;;;3.33;;
1360;SDS011;674;45.552;-122.600;2023-04-21T08:42:56;4.57;;;3.00;;
1360;SDS011;674;45.552;-122.600;2023-04-21T08:45:26;4.63;;;3.60;;
1360;SDS011;674;45.552;-122.600;2023-04-21T08:47:55;5.00;;;3.30;;
1360;SDS011;674;45.552;-122.600;2023-04-21T08:50:26;4.20;;;3.27;;
1360;SDS011;674;45.552;-122.600;2023-04-21T08:52:56;4.90;;;3.07;;
1360;SDS011;674;45.552;-122.600;2023-04-21T08:55:27;4.57;;;3.73;;
1360;SDS011;674;45.552;-122.600;2023-04-21T08:57:56;4.70;;;4.20;;
1360;SDS011;674;45.552;-122.600;2023-04-21T09:00:25;5.83;;;4.70;;
1360;SDS011;674;45.552;-122.600;2023-04-21T09:02:54;4.30;;;3.33;;
1360;SDS011;674;45.552;-122.600;2023-04-21T09:05:28;4.80;;;4.23;;
1360;SDS011;674;45.552;-122.600;2023-04-21T09:08:11;5.00;;;3.90;;
1360;SDS011;674;45.552;-122.600;2023-04-21T09:10:48;5.40;;;4.27;;
1360;SDS011;674;45.552;-122.600;2023-04-21T09:13:20;5.67;;;4.00;;
1360;SDS011;674;45.552;-122.600;2023-04-21T09:15:57;4.70;;;3.53;;
1360;SDS011;674;45.552;-122.600;2023-04-21T09:18:28;4.80;;;3.17;;
1360;SDS011;674;45.552;-122.600;2023-04-21T09:21:10;4.03;;;2.47;;
1360;SDS011;674;45.552;-122.600;2023-04-21T09:23:45;4.03;;;2.93;;
1360;SDS011;674;45.552;-122.600;2023-04-21T09:26:19;4.20;;;3.40;;
1360;SDS011;674;45.552;-122.600;2023-04-21T09:28:51;6.57;;;4.00;;
1360;SDS011;674;45.552;-122.600;2023-04-21T09:31:20;4.60;;;3.30;;
1360;SDS011;674;45.552;-122.600;2023-04-21T09:33:55;4.60;;;3.10;;
1360;SDS011;674;45.552;-122.600;2023-04-21T09:36:27;4.47;;;2.77;;
1360;SDS011;674;45.552;-122.600;2023-04-21T09:38:59;4.20;;;2.70;;
1360;SDS011;674;45.552;-122.600;2023-04-21T09:41:48;4.07;;;2.97;;
1360;SDS011;674;45.552;-122.600;2023-04-21T09:44:16;3.60;;;2.57;;
1360;SDS011;674;45.552;-122.600;2023-04-21T09:46:47;4.17;;;2.77;;
1360;SDS011;674;45.552;-122.600;2023-04-21T09:49:17;4.03;;;2.93;;
1360;SDS011;674;45.552;-122.600;2023-04-21T09:51:48;3.77;;;1.80;;
1360;SDS011;674;45.552;-122.600;2023-04-21T09:54:19;4.80;;;3.10;;
1360;SDS011;674;45.552;-122.600;2023-04-21T09:57:00;3.07;;;2.20;;
1360;SDS011;674;45.552;-122.600;2023-04-21T09:59:37;5.50;;;2.23;;
1360;SDS011;674;45.552;-122.600;2023-04-21T10:02:11;3.10;;;2.33;;
1360;SDS011;674;45.552;-122.600;2023-04-21T10:04:40;5.17;;;2.57;;
1360;SDS011;674;45.552;-122.600;2023-04-21T10:07:10;6.43;;;2.40;;
1360;SDS011;674;45.552;-122.600;2023-04-21T10:09:40;5.90;;;2.93;;
1360;SDS011;674;45.552;-122.600;2023-04-21T10:12:13;3.70;;;2.77;;
1360;SDS011;674;45.552;-122.600;2023-04-21T10:14:43;3.33;;;2.10;;
1360;SDS011;674;45.552;-122.600;2023-04-21T10:17:11;3.33;;;2.13;;
1360;SDS011;674;45.552;-122.600;2023-04-21T10:19:47;5.23;;;2.30;;
1360;SDS011;674;45.552;-122.600;2023-04-21T10:22:27;3.90;;;2.33;;
1360;SDS011;674;45.552;-122.600;2023-04-21T10:24:58;3.80;;;2.03;;
1360;SDS011;674;45.552;-122.600;2023-04-21T10:27:36;5.33;;;2.70;;
1360;SDS011;674;45.552;-122.600;2023-04-21T10:33:00;4.73;;;2.20;;
1360;SDS011;674;45.552;-122.600;2023-04-21T10:38:35;5.03;;;1.90;;
1360;SDS011;674;45.552;-122.600;2023-04-21T10:41:27;7.70;;;2.17;;
1360;SDS011;674;45.552;-122.600;2023-04-21T10:43:59;5.17;;;2.20;;
1360;SDS011;674;45.552;-122.600;2023-04-21T10:46:38;3.97;;;2.03;;
1360;SDS011;674;45.552;-122.600;2023-04-21T10:49:20;4.50;;;1.73;;
1360;SDS011;674;45.552;-122.600;2023-04-21T10:52:01;4.23;;;2.30;;
1360;SDS011;674;45.552;-122.600;2023-04-21T10:57:17;3.67;;;1.70;;
1360;SDS011;674;45.552;-122.600;2023-04-21T10:59:47;5.17;;;2.20;;
1360;SDS011;674;45.552;-122.600;2023-04-21T11:02:18;4.07;;;1.53;;
1360;SDS011;674;45.552;-122.600;2023-04-21T11:04:53;8.73;;;1.87;;
1360;SDS011;674;45.552;-122.600;2023-04-21T11:07:23;7.70;;;1.70;;
1360;SDS011;674;45.552;-122.600;2023-04-21T11:10:02;6.43;;;2.17;;
1360;SDS011;674;45.552;-122.600;2023-04-21T11:12:33;5.53;;;2.13;;
1360;SDS011;674;45.552;-122.600;2023-04-21T11:15:06;7.70;;;3.23;;
1360;SDS011;674;45.552;-122.600;2023-04-21T11:17:36;5.70;;;1.93;;
1360;SDS011;674;45.552;-122.600;2023-04-21T11:20:06;4.53;;;1.90;;
1360;SDS011;674;45.552;-122.600;2023-04-21T11:22:35;5.13;;;2.03;;
1360;SDS011;674;45.552;-122.600;2023-04-21T11:25:05;5.13;;;1.70;;
1360;SDS011;674;45.552;-122.600;2023-04-21T11:27:54;8.43;;;2.30;;
1360;SDS011;674;45.552;-122.600;2023-04-21T11:30:32;5.83;;;2.20;;
1360;SDS011;674;45.552;-122.600;2023-04-21T11:33:01;7.37;;;2.20;;
1360;SDS011;674;45.552;-122.600;2023-04-21T11:35:30;2.50;;;1.50;;
1360;SDS011;674;45.552;-122.600;2023-04-21T11:38:03;5.10;;;2.00;;
1360;SDS011;674;45.552;-122.600;2023-04-21T11:40:47;5.90;;;1.50;;
1360;SDS011;674;45.552;-122.600;2023-04-21T11:43:17;5.90;;;1.90;;
1360;SDS011;674;45.552;-122.600;2023-04-21T11:45:48;4.57;;;1.47;;
1360;SDS011;674;45.552;-122.600;2023-04-21T11:48:17;5.80;;;2.10;;
1360;SDS011;674;45.552;-122.600;2023-04-21T11:50:47;4.90;;;1.83;;
1360;SDS011;674;45.552;-122.600;2023-04-21T11:53:16;5.10;;;1.90;;
1360;SDS011;674;45.552;-122.600;2023-04-21T11:55:45;9.50;;;2.23;;
1360;SDS011;674;45.552;-122.600;2023-04-21T11:58:14;7.10;;;1.93;;
1360;SDS011;674;45.552;-122.600;2023-04-21T12:00:44;5.00;;;2.50;;
1360;SDS011;674;45.552;-122.600;2023-04-21T12:03:13;14.50;;;2.20;;
1360;SDS011;674;45.552;-122.600;2023-04-21T12:05:42;4.30;;;2.10;;
1360;SDS011;674;45.552;-122.600;2023-04-21T12:08:14;8.70;;;2.20;;
1360;SDS011;674;45.552;-122.600;2023-04-21T12:10:43;10.40;;;2.20;;
1360;SDS011;674;45.552;-122.600;2023-04-21T12:13:18;6.87;;;2.30;;
1360;SDS011;674;45.552;-122.600;2023-04-21T12:15:49;8.57;;;2.17;;
1360;SDS011;674;45.552;-122.600;2023-04-21T12:18:18;10.40;;;2.30;;
1360;SDS011;674;45.552;-122.600;2023-04-21T12:20:50;7.83;;;1.90;;
1360;SDS011;674;45.552;-122.600;2023-04-21T12:23:19;5.00;;;1.60;;
1360;SDS011;674;45.552;-122.600;2023-04-21T12:25:48;6.93;;;2.47;;
1360;SDS011;674;45.552;-122.600;2023-04-21T12:28:17;5.30;;;1.73;;
1360;SDS011;674;45.552;-122.600;2023-04-21T12:30:45;6.33;;;2.13;;
1360;SDS011;674;45.552;-122.600;2023-04-21T12:33:14;7.07;;;2.53;;
1360;SDS011;674;45.552;-122.600;2023-04-21T12:35:42;7.18;;;2.20;;
1360;SDS011;674;45.552;-122.600;2023-04-21T12:38:11;8.27;;;2.37;;
1360;SDS011;674;45.552;-122.600;2023-04-21T12:40:39;7.57;;;2.43;;
1360;SDS011;674;45.552;-122.600;2023-04-21T12:43:08;4.80;;;2.13;;
1360;SDS011;674;45.552;-122.600;2023-04-21T12:45:36;6.83;;;3.53;;
1360;SDS011;674;45.552;-122.600;2023-04-21T12:48:05;6.00;;;2.00;;
1360;SDS011;674;45.552;-122.600;2023-04-21T12:50:33;7.97;;;2.43;;
1360;SDS011;674;45.552;-122.600;2023-04-21T12:53:02;4.97;;;2.20;;
1360;SDS011;674;45.552;-122.600;2023-04-21T12:55:30;7.70;;;2.07;;
1360;SDS011;674;45.552;-122.600;2023-04-21T12:58:00;7.50;;;2.40;;
1360;SDS011;674;45.552;-122.600;2023-04-21T13:00:29;6.23;;;2.50;;
1360;SDS011;674;45.552;-122.600;2023-04-21T13:02:59;5.30;;;2.10;;
1360;SDS011;674;45.552;-122.600;2023-04-21T13:05:28;6.20;;;2.30;;
1360;SDS011;674;45.552;-122.600;2023-04-21T13:07:56;8.30;;;2.60;;
1360;SDS011;674;45.552;-122.600;2023-04-21T13:10:25;9.57;;;2.73;;
1360;SDS011;674;45.552;-122.600;2023-04-21T13:12:53;8.67;;;2.53;;
1360;SDS011;674;45.552;-122.600;2023-04-21T13:15:22;11.30;;;2.67;;
1360;SDS011;674;45.552;-122.600;2023-04-21T13:17:50;4.60;;;2.23;;
1360;SDS011;674;45.552;-122.600;2023-04-21T13:20:19;4.32;;;2.00;;
1360;SDS011;674;45.552;-122.600;2023-04-21T13:22:48;6.90;;;2.05;;
1360;SDS011;674;45.552;-122.600;2023-04-21T13:25:17;7.60;;;2.57;;
1360;SDS011;674;45.552;-122.600;2023-04-21T13:27:48;7.33;;;2.43;;
1360;SDS011;674;45.552;-122.600;2023-04-21T13:30:18;9.20;;;2.20;;
1360;SDS011;674;45.552;-122.600;2023-04-21T13:32:47;5.47;;;2.63;;
1360;SDS011;674;45.552;-122.600;2023-04-21T13:35:16;6.83;;;2.50;;
1360;SDS011;674;45.552;-122.600;2023-04-21T13:37:44;6.70;;;2.77;;
1360;SDS011;674;45.552;-122.600;2023-04-21T13:40:13;5.23;;;2.10;;
1360;SDS011;674;45.552;-122.600;2023-04-21T13:42:42;6.77;;;2.50;;
1360;SDS011;674;45.552;-122.600;2023-04-21T13:45:11;8.13;;;2.67;;
1360;SDS011;674;45.552;-122.600;2023-04-21T13:47:39;8.30;;;3.27;;
1360;SDS011;674;45.552;-122.600;2023-04-21T13:50:08;6.50;;;2.70;;
1360;SDS011;674;45.552;-122.600;2023-04-21T13:52:37;7.53;;;2.90;;
1360;SDS011;674;45.552;-122.600;2023-04-21T13:55:05;8.33;;;2.67;;
1360;SDS011;674;45.552;-122.600;2023-04-21T13:57:34;8.47;;;2.90;;
1360;SDS011;674;45.552;-122.600;2023-04-21T14:00:03;5.57;;;2.80;;
1360;SDS011;674;45.552;-122.600;2023-04-21T14:02:32;10.77;;;3.50;;
1360;SDS011;674;45.552;-122.600;2023-04-21T14:05:01;10.30;;;3.30;;
1360;SDS011;674;45.552;-122.600;2023-04-21T14:07:31;12.47;;;4.67;;
1360;SDS011;674;45.552;-122.600;2023-04-21T14:09:59;12.07;;;3.90;;
1360;SDS011;674;45.552;-122.600;2023-04-21T14:12:28;8.63;;;3.10;;
1360;SDS011;674;45.552;-122.600;2023-04-21T14:14:57;6.33;;;3.93;;
1360;SDS011;674;45.552;-122.600;2023-04-21T14:17:25;9.60;;;4.20;;
1360;SDS011;674;45.552;-122.600;2023-04-21T14:19:54;20.17;;;12.43;;
1360;SDS011;674;45.552;-122.600;2023-04-21T14:22:22;36.33;;;21.00;;
1360;SDS011;674;45.552;-122.600;2023-04-21T14:24:51;44.40;;;25.67;;
1360;SDS011;674;45.552;-122.600;2023-04-21T14:27:20;41.53;;;24.20;;
1360;SDS011;674;45.552;-122.600;2023-04-21T14:29:48;40.57;;;21.53;;
1360;SDS011;674;45.552;-122.600;2023-04-21T14:32:17;41.77;;;23.27;;
1360;SDS011;674;45.552;-122.600;2023-04-21T14:34:47;23.17;;;12.00;;
1360;SDS011;674;45.552;-122.600;2023-04-21T14:37:20;17.10;;;7.83;;
1360;SDS011;674;45.552;-122.600;2023-04-21T14:39:48;10.97;;;5.33;;
1360;SDS011;674;45.552;-122.600;2023-04-21T14:42:17;11.97;;;5.60;;
1360;SDS011;674;45.552;-122.600;2023-04-21T14:44:45;13.60;;;7.00;;
1360;SDS011;674;45.552;-122.600;2023-04-21T14:47:14;14.67;;;7.70;;
1360;SDS011;674;45.552;-122.600;2023-04-21T14:49:42;27.40;;;12.83;;
1360;SDS011;674;45.552;-122.600;2023-04-21T14:52:11;19.60;;;9.40;;
1360;SDS011;674;45.552;-122.600;2023-04-21T14:54:40;16.80;;;8.10;;
1360;SDS011;674;45.552;-122.600;2023-04-21T14:57:08;11.10;;;4.10;;
1360;SDS011;674;45.552;-122.600;2023-04-21T14:59:47;9.67;;;4.10;;
1360;SDS011;674;45.552;-122.600;2023-04-21T15:02:20;9.87;;;4.13;;
1360;SDS011;674;45.552;-122.600;2023-04-21T15:04:49;9.40;;;3.50;;
1360;SDS011;674;45.552;-122.600;2023-04-21T15:07:17;10.43;;;5.63;;